Магадан-13

Карта отелей и гостиниц, располагающихся рядом с аэропортом Магадан-13 :

Магадан-13 Магаданская область 59° 37' 20.28" N, 150° 55' 18.4188" E
Код аэродрома ИКАО
UHMT
Код аэродрома RU
УХМТ
Координаты
N59.62230° E150.92178°
Превышение над уровнем моря
45
Основная полоса
03/21
Курс магнитный
024,8/204,8
Длина основной ВПП
800
Ширина основной ВПП
50
Покрытие основной ВПП
Нетвёрдое (грунт)
Освещение ВПП
Нет
Тип: 
Аэродром
Класс аэродрома: 
Принадлежность: 
ГА
Статус: 
Действующий
Сайт: 
E-mail аэродрома: 
magadan13km@yandex.ru
Страна: 
Россия
Регион: 
Магаданская область
Город: 
Дополнительная информация: 
В статусе ПП. Состояние и рабочая длина ГВПП доводится по факту при запросе. Базируется 73-й АРЗ ГА. Ми-8 и Ан-2 а/к ПАНХ, Поляр-Авиа, СЛА АОН. В н.в. пригоден для самолетов только северный участок ВПП 400-450 м.

Найти трансфер

С помощью этой формы Вы можете найти трансфер из аэропорта Магадан-13 в город, аэропорт или вокзал:

Карта места

Javascript is required to view this map.

Погода в аэропортах:

Авиационная погода в аэропорту Новый

Регион: 
Погода METAR: 
UHHH 050800Z 05002MPS 010V090 9999 -SHRA VCTS SCT033CB 22/21 Q1002 R23R/290045 TEMPO 3100 -TSRA RMK QFE745/0994
Время наблюдения
2021-08-05T08:00:00Z
Температура C
22.0
Точка росы
21.0
Направление ветра
50
Скорость ветра (узлы)
4
Метео видимость
6.21
Явления погоды
-SHRA VCTS
Условия полета
VFR
Аэропорт подробнее: 

Авиационная погода в Архангельске

Регион: 
Погода METAR: 
ULAA 050800Z 29005MPS 250V330 9999 -SHRA BKN014CB 12/10 Q1014 R26/290060 NOSIG RMK QFE759/1012
Время наблюдения
2021-08-05T08:00:00Z
Температура C
12.0
Точка росы
10.0
Направление ветра
290
Скорость ветра (узлы)
10
Метео видимость
6.21
Явления погоды
-SHRA
Условия полета
MVFR
Аэропорт подробнее: 

Авиационная погода в Якутске

Регион: 
Погода METAR: 
UEEE 050800Z 01003MPS 5000 FU NSC 26/06 Q1003 R23L/09//70 NOSIG RMK QFE743
Время наблюдения
2021-08-05T08:00:00Z
Температура C
26.0
Точка росы
6.0
Направление ветра
10
Скорость ветра (узлы)
6
Метео видимость
3.11
Явления погоды
FU
Условия полета
MVFR
Аэропорт подробнее: 

Авиационная погода в Мирном

Регион: 
Погода METAR: 
UERR 050800Z 06003MPS 0600 HZ VV005 21/13 Q1005 R25/CLRD60 NOSIG RMK QBB150 QFE723/0964
Время наблюдения
2021-08-05T08:00:00Z
Температура C
21.0
Точка росы
13.0
Направление ветра
60
Скорость ветра (узлы)
6
Метео видимость
0.37
Явления погоды
HZ
Условия полета
LIFR
Аэропорт подробнее: